sensor_id;sensor_type;location;lat;lon;timestamp;P1;durP1;ratioP1;P2;durP2;ratioP2
2177;SDS011;1095;50.992;6.798;2023-03-21T00:02:22;13.10;;;7.90;;
2177;SDS011;1095;50.992;6.798;2023-03-21T00:04:49;13.70;;;7.30;;
2177;SDS011;1095;50.992;6.798;2023-03-21T00:07:16;13.35;;;7.20;;
2177;SDS011;1095;50.992;6.798;2023-03-21T00:09:43;15.40;;;7.80;;
2177;SDS011;1095;50.992;6.798;2023-03-21T00:12:09;13.55;;;7.05;;
2177;SDS011;1095;50.992;6.798;2023-03-21T00:14:38;17.52;;;7.18;;
2177;SDS011;1095;50.992;6.798;2023-03-21T00:17:04;13.82;;;7.80;;
2177;SDS011;1095;50.992;6.798;2023-03-21T00:19:31;11.57;;;6.72;;
2177;SDS011;1095;50.992;6.798;2023-03-21T00:22:02;12.05;;;7.65;;
2177;SDS011;1095;50.992;6.798;2023-03-21T00:24:29;14.45;;;7.28;;
2177;SDS011;1095;50.992;6.798;2023-03-21T00:26:55;13.02;;;7.53;;
2177;SDS011;1095;50.992;6.798;2023-03-21T00:29:22;14.13;;;7.97;;
2177;SDS011;1095;50.992;6.798;2023-03-21T00:31:50;17.38;;;8.23;;
2177;SDS011;1095;50.992;6.798;2023-03-21T00:34:17;9.50;;;6.97;;
2177;SDS011;1095;50.992;6.798;2023-03-21T00:36:43;14.07;;;7.80;;
2177;SDS011;1095;50.992;6.798;2023-03-21T00:39:10;12.93;;;7.30;;
2177;SDS011;1095;50.992;6.798;2023-03-21T00:41:38;11.52;;;7.50;;
2177;SDS011;1095;50.992;6.798;2023-03-21T00:44:05;14.73;;;8.15;;
2177;SDS011;1095;50.992;6.798;2023-03-21T00:46:31;14.60;;;7.80;;
2177;SDS011;1095;50.992;6.798;2023-03-21T00:49:01;15.40;;;7.93;;
2177;SDS011;1095;50.992;6.798;2023-03-21T00:51:27;16.40;;;8.25;;
2177;SDS011;1095;50.992;6.798;2023-03-21T00:53:54;14.73;;;7.63;;
2177;SDS011;1095;50.992;6.798;2023-03-21T00:56:22;11.10;;;7.50;;
2177;SDS011;1095;50.992;6.798;2023-03-21T00:58:49;13.65;;;7.47;;
2177;SDS011;1095;50.992;6.798;2023-03-21T01:01:16;11.05;;;7.93;;
2177;SDS011;1095;50.992;6.798;2023-03-21T01:03:43;13.88;;;8.05;;
2177;SDS011;1095;50.992;6.798;2023-03-21T01:06:16;13.70;;;7.95;;
2177;SDS011;1095;50.992;6.798;2023-03-21T01:08:44;17.00;;;8.00;;
2177;SDS011;1095;50.992;6.798;2023-03-21T01:11:13;15.52;;;8.18;;
2177;SDS011;1095;50.992;6.798;2023-03-21T01:13:41;17.65;;;8.90;;
2177;SDS011;1095;50.992;6.798;2023-03-21T01:16:09;14.27;;;8.80;;
2177;SDS011;1095;50.992;6.798;2023-03-21T01:18:36;17.27;;;9.02;;
2177;SDS011;1095;50.992;6.798;2023-03-21T01:21:05;15.60;;;8.63;;
2177;SDS011;1095;50.992;6.798;2023-03-21T01:23:35;12.48;;;8.73;;
2177;SDS011;1095;50.992;6.798;2023-03-21T01:26:03;15.00;;;8.90;;
2177;SDS011;1095;50.992;6.798;2023-03-21T01:28:30;16.77;;;9.23;;
2177;SDS011;1095;50.992;6.798;2023-03-21T01:30:59;20.13;;;8.48;;
2177;SDS011;1095;50.992;6.798;2023-03-21T01:33:27;13.80;;;8.80;;
2177;SDS011;1095;50.992;6.798;2023-03-21T01:35:54;13.90;;;8.10;;
2177;SDS011;1095;50.992;6.798;2023-03-21T01:38:21;15.38;;;9.07;;
2177;SDS011;1095;50.992;6.798;2023-03-21T01:40:49;16.42;;;8.60;;
2177;SDS011;1095;50.992;6.798;2023-03-21T01:43:21;23.52;;;9.18;;
2177;SDS011;1095;50.992;6.798;2023-03-21T01:48:54;15.75;;;8.82;;
2177;SDS011;1095;50.992;6.798;2023-03-21T01:51:24;19.13;;;8.90;;
2177;SDS011;1095;50.992;6.798;2023-03-21T01:53:52;17.45;;;8.73;;
2177;SDS011;1095;50.992;6.798;2023-03-21T01:56:23;18.02;;;8.95;;
2177;SDS011;1095;50.992;6.798;2023-03-21T01:58:52;21.98;;;9.45;;
2177;SDS011;1095;50.992;6.798;2023-03-21T02:01:22;19.75;;;9.90;;
2177;SDS011;1095;50.992;6.798;2023-03-21T02:03:48;14.80;;;8.50;;
2177;SDS011;1095;50.992;6.798;2023-03-21T02:06:19;16.60;;;9.40;;
2177;SDS011;1095;50.992;6.798;2023-03-21T02:08:54;14.38;;;8.65;;
2177;SDS011;1095;50.992;6.798;2023-03-21T02:11:24;20.08;;;10.00;;
2177;SDS011;1095;50.992;6.798;2023-03-21T02:13:52;18.02;;;9.07;;
2177;SDS011;1095;50.992;6.798;2023-03-21T02:16:20;15.65;;;9.07;;
2177;SDS011;1095;50.992;6.798;2023-03-21T02:18:58;15.82;;;8.77;;
2177;SDS011;1095;50.992;6.798;2023-03-21T02:22:10;17.23;;;8.95;;
2177;SDS011;1095;50.992;6.798;2023-03-21T02:24:56;17.67;;;9.00;;
2177;SDS011;1095;50.992;6.798;2023-03-21T02:27:43;17.25;;;9.38;;
2177;SDS011;1095;50.992;6.798;2023-03-21T02:30:27;18.17;;;9.13;;
2177;SDS011;1095;50.992;6.798;2023-03-21T02:33:14;21.38;;;10.13;;
2177;SDS011;1095;50.992;6.798;2023-03-21T02:36:03;16.27;;;8.43;;
2177;SDS011;1095;50.992;6.798;2023-03-21T02:38:59;15.98;;;9.23;;
2177;SDS011;1095;50.992;6.798;2023-03-21T02:41:34;18.80;;;9.82;;
2177;SDS011;1095;50.992;6.798;2023-03-21T02:44:11;17.70;;;9.10;;
2177;SDS011;1095;50.992;6.798;2023-03-21T02:46:45;15.98;;;9.55;;
2177;SDS011;1095;50.992;6.798;2023-03-21T02:49:18;12.52;;;6.88;;
2177;SDS011;1095;50.992;6.798;2023-03-21T02:54:17;14.45;;;9.05;;
2177;SDS011;1095;50.992;6.798;2023-03-21T02:56:48;14.90;;;8.82;;
2177;SDS011;1095;50.992;6.798;2023-03-21T02:59:17;18.38;;;9.20;;
2177;SDS011;1095;50.992;6.798;2023-03-21T03:01:47;18.45;;;9.50;;
2177;SDS011;1095;50.992;6.798;2023-03-21T03:04:16;15.63;;;9.32;;
2177;SDS011;1095;50.992;6.798;2023-03-21T03:06:53;19.95;;;9.18;;
2177;SDS011;1095;50.992;6.798;2023-03-21T03:09:39;19.23;;;9.18;;
2177;SDS011;1095;50.992;6.798;2023-03-21T03:12:16;18.27;;;9.05;;
2177;SDS011;1095;50.992;6.798;2023-03-21T03:14:54;17.00;;;9.07;;
2177;SDS011;1095;50.992;6.798;2023-03-21T03:17:34;13.75;;;9.23;;
2177;SDS011;1095;50.992;6.798;2023-03-21T03:20:18;17.10;;;9.50;;
2177;SDS011;1095;50.992;6.798;2023-03-21T03:22:56;16.90;;;10.18;;
2177;SDS011;1095;50.992;6.798;2023-03-21T03:25:33;16.42;;;9.55;;
2177;SDS011;1095;50.992;6.798;2023-03-21T03:28:04;16.92;;;9.18;;
2177;SDS011;1095;50.992;6.798;2023-03-21T03:30:33;16.75;;;9.48;;
2177;SDS011;1095;50.992;6.798;2023-03-21T03:33:02;17.42;;;10.05;;
2177;SDS011;1095;50.992;6.798;2023-03-21T03:35:31;20.02;;;10.23;;
2177;SDS011;1095;50.992;6.798;2023-03-21T03:37:59;16.75;;;9.63;;
2177;SDS011;1095;50.992;6.798;2023-03-21T03:40:29;26.17;;;10.98;;
2177;SDS011;1095;50.992;6.798;2023-03-21T03:43:02;19.98;;;9.93;;
2177;SDS011;1095;50.992;6.798;2023-03-21T03:45:33;23.05;;;10.93;;
2177;SDS011;1095;50.992;6.798;2023-03-21T03:48:03;25.95;;;12.15;;
2177;SDS011;1095;50.992;6.798;2023-03-21T03:50:37;21.20;;;11.32;;
2177;SDS011;1095;50.992;6.798;2023-03-21T03:53:09;18.67;;;11.02;;
2177;SDS011;1095;50.992;6.798;2023-03-21T03:55:46;19.35;;;10.90;;
2177;SDS011;1095;50.992;6.798;2023-03-21T03:58:16;21.58;;;11.20;;
2177;SDS011;1095;50.992;6.798;2023-03-21T04:00:44;21.90;;;10.95;;
2177;SDS011;1095;50.992;6.798;2023-03-21T04:03:11;19.65;;;11.27;;
2177;SDS011;1095;50.992;6.798;2023-03-21T04:05:38;17.17;;;10.70;;
2177;SDS011;1095;50.992;6.798;2023-03-21T04:08:06;19.40;;;10.65;;
2177;SDS011;1095;50.992;6.798;2023-03-21T04:10:33;16.50;;;10.13;;
2177;SDS011;1095;50.992;6.798;2023-03-21T04:13:01;22.95;;;11.60;;
2177;SDS011;1095;50.992;6.798;2023-03-21T04:15:27;22.15;;;11.10;;
2177;SDS011;1095;50.992;6.798;2023-03-21T04:17:54;20.77;;;10.70;;
2177;SDS011;1095;50.992;6.798;2023-03-21T04:20:21;18.60;;;10.90;;
2177;SDS011;1095;50.992;6.798;2023-03-21T04:22:48;16.73;;;9.98;;
2177;SDS011;1095;50.992;6.798;2023-03-21T04:25:15;18.15;;;10.20;;
2177;SDS011;1095;50.992;6.798;2023-03-21T04:27:42;19.65;;;10.40;;
2177;SDS011;1095;50.992;6.798;2023-03-21T04:30:12;17.75;;;9.63;;
2177;SDS011;1095;50.992;6.798;2023-03-21T04:32:39;17.52;;;10.07;;
2177;SDS011;1095;50.992;6.798;2023-03-21T04:35:07;16.90;;;10.40;;
2177;SDS011;1095;50.992;6.798;2023-03-21T04:37:35;18.50;;;10.77;;
2177;SDS011;1095;50.992;6.798;2023-03-21T04:40:03;19.50;;;9.98;;
2177;SDS011;1095;50.992;6.798;2023-03-21T04:42:32;18.98;;;10.10;;
2177;SDS011;1095;50.992;6.798;2023-03-21T04:44:59;17.25;;;10.60;;
2177;SDS011;1095;50.992;6.798;2023-03-21T04:47:27;18.85;;;11.20;;
2177;SDS011;1095;50.992;6.798;2023-03-21T04:49:54;21.70;;;10.80;;
2177;SDS011;1095;50.992;6.798;2023-03-21T04:52:22;19.25;;;9.25;;
2177;SDS011;1095;50.992;6.798;2023-03-21T04:54:48;18.75;;;9.38;;
2177;SDS011;1095;50.992;6.798;2023-03-21T04:57:15;22.42;;;9.73;;
2177;SDS011;1095;50.992;6.798;2023-03-21T04:59:42;16.02;;;9.55;;
2177;SDS011;1095;50.992;6.798;2023-03-21T05:02:08;17.85;;;9.02;;
2177;SDS011;1095;50.992;6.798;2023-03-21T05:04:37;15.55;;;9.45;;
2177;SDS011;1095;50.992;6.798;2023-03-21T05:07:04;18.42;;;8.90;;
2177;SDS011;1095;50.992;6.798;2023-03-21T05:09:30;19.77;;;9.80;;
2177;SDS011;1095;50.992;6.798;2023-03-21T05:11:57;18.60;;;9.70;;
2177;SDS011;1095;50.992;6.798;2023-03-21T05:14:25;16.63;;;9.40;;
2177;SDS011;1095;50.992;6.798;2023-03-21T05:16:58;15.30;;;8.98;;
2177;SDS011;1095;50.992;6.798;2023-03-21T05:19:29;13.95;;;9.15;;
2177;SDS011;1095;50.992;6.798;2023-03-21T05:22:02;17.48;;;9.02;;
2177;SDS011;1095;50.992;6.798;2023-03-21T05:24:34;18.08;;;9.20;;
2177;SDS011;1095;50.992;6.798;2023-03-21T05:27:03;19.23;;;8.50;;
2177;SDS011;1095;50.992;6.798;2023-03-21T05:29:31;18.88;;;9.05;;
2177;SDS011;1095;50.992;6.798;2023-03-21T05:31:59;16.80;;;8.20;;
2177;SDS011;1095;50.992;6.798;2023-03-21T05:34:27;22.20;;;8.95;;
2177;SDS011;1095;50.992;6.798;2023-03-21T05:36:54;17.00;;;8.75;;
2177;SDS011;1095;50.992;6.798;2023-03-21T05:39:22;22.98;;;9.40;;
2177;SDS011;1095;50.992;6.798;2023-03-21T05:41:49;21.92;;;8.82;;
2177;SDS011;1095;50.992;6.798;2023-03-21T05:44:17;18.15;;;8.75;;
2177;SDS011;1095;50.992;6.798;2023-03-21T05:46:44;26.10;;;8.68;;
2177;SDS011;1095;50.992;6.798;2023-03-21T05:49:10;18.25;;;8.48;;
2177;SDS011;1095;50.992;6.798;2023-03-21T05:51:37;26.48;;;9.93;;
2177;SDS011;1095;50.992;6.798;2023-03-21T05:54:04;19.05;;;8.82;;
2177;SDS011;1095;50.992;6.798;2023-03-21T05:56:32;17.90;;;8.38;;
2177;SDS011;1095;50.992;6.798;2023-03-21T05:58:59;16.55;;;8.57;;
2177;SDS011;1095;50.992;6.798;2023-03-21T06:01:27;17.70;;;8.73;;
2177;SDS011;1095;50.992;6.798;2023-03-21T06:03:54;22.42;;;9.20;;
2177;SDS011;1095;50.992;6.798;2023-03-21T06:06:20;14.55;;;8.48;;
2177;SDS011;1095;50.992;6.798;2023-03-21T06:08:47;16.42;;;8.35;;
2177;SDS011;1095;50.992;6.798;2023-03-21T06:11:17;18.85;;;9.05;;
2177;SDS011;1095;50.992;6.798;2023-03-21T06:13:49;17.30;;;8.77;;
2177;SDS011;1095;50.992;6.798;2023-03-21T06:16:16;16.52;;;8.57;;
2177;SDS011;1095;50.992;6.798;2023-03-21T06:18:42;17.10;;;8.23;;
2177;SDS011;1095;50.992;6.798;2023-03-21T06:21:09;16.75;;;9.18;;
2177;SDS011;1095;50.992;6.798;2023-03-21T06:23:36;26.10;;;9.30;;
2177;SDS011;1095;50.992;6.798;2023-03-21T06:26:03;21.08;;;8.75;;
2177;SDS011;1095;50.992;6.798;2023-03-21T06:28:30;16.75;;;8.43;;
2177;SDS011;1095;50.992;6.798;2023-03-21T06:30:58;20.00;;;9.98;;
2177;SDS011;1095;50.992;6.798;2023-03-21T06:33:25;18.20;;;9.02;;
2177;SDS011;1095;50.992;6.798;2023-03-21T06:35:52;21.00;;;8.48;;
2177;SDS011;1095;50.992;6.798;2023-03-21T06:38:20;19.98;;;8.77;;
2177;SDS011;1095;50.992;6.798;2023-03-21T06:40:47;17.20;;;8.65;;
2177;SDS011;1095;50.992;6.798;2023-03-21T06:43:14;14.18;;;8.15;;
2177;SDS011;1095;50.992;6.798;2023-03-21T06:45:41;18.00;;;8.43;;
2177;SDS011;1095;50.992;6.798;2023-03-21T06:48:09;14.15;;;8.65;;
2177;SDS011;1095;50.992;6.798;2023-03-21T06:50:37;20.05;;;9.43;;
2177;SDS011;1095;50.992;6.798;2023-03-21T06:53:03;16.52;;;8.20;;
2177;SDS011;1095;50.992;6.798;2023-03-21T06:55:32;21.75;;;9.50;;
2177;SDS011;1095;50.992;6.798;2023-03-21T06:58:04;19.85;;;8.70;;
2177;SDS011;1095;50.992;6.798;2023-03-21T07:00:31;19.27;;;8.73;;
2177;SDS011;1095;50.992;6.798;2023-03-21T07:02:59;20.20;;;9.60;;
2177;SDS011;1095;50.992;6.798;2023-03-21T07:05:27;16.13;;;9.10;;
2177;SDS011;1095;50.992;6.798;2023-03-21T07:07:54;15.60;;;8.88;;
2177;SDS011;1095;50.992;6.798;2023-03-21T07:10:21;18.88;;;9.80;;
2177;SDS011;1095;50.992;6.798;2023-03-21T07:12:48;18.80;;;10.57;;
2177;SDS011;1095;50.992;6.798;2023-03-21T07:15:15;14.60;;;9.13;;
2177;SDS011;1095;50.992;6.798;2023-03-21T07:17:41;20.73;;;9.85;;
2177;SDS011;1095;50.992;6.798;2023-03-21T07:20:08;21.65;;;9.80;;
2177;SDS011;1095;50.992;6.798;2023-03-21T07:22:38;23.98;;;9.63;;
2177;SDS011;1095;50.992;6.798;2023-03-21T07:25:08;19.38;;;10.70;;
2177;SDS011;1095;50.992;6.798;2023-03-21T07:27:38;16.17;;;9.93;;
2177;SDS011;1095;50.992;6.798;2023-03-21T07:30:05;16.60;;;9.45;;
2177;SDS011;1095;50.992;6.798;2023-03-21T07:32:33;20.13;;;9.88;;
2177;SDS011;1095;50.992;6.798;2023-03-21T07:35:02;17.42;;;10.43;;
2177;SDS011;1095;50.992;6.798;2023-03-21T07:37:29;20.35;;;11.25;;
2177;SDS011;1095;50.992;6.798;2023-03-21T07:39:57;19.83;;;11.15;;
2177;SDS011;1095;50.992;6.798;2023-03-21T07:42:23;17.50;;;10.90;;
2177;SDS011;1095;50.992;6.798;2023-03-21T07:44:50;24.40;;;11.95;;
2177;SDS011;1095;50.992;6.798;2023-03-21T07:47:19;23.17;;;11.65;;
2177;SDS011;1095;50.992;6.798;2023-03-21T07:49:45;19.10;;;10.63;;
2177;SDS011;1095;50.992;6.798;2023-03-21T07:52:12;20.60;;;10.85;;
2177;SDS011;1095;50.992;6.798;2023-03-21T07:54:39;23.25;;;11.77;;
2177;SDS011;1095;50.992;6.798;2023-03-21T07:57:07;21.67;;;11.52;;
2177;SDS011;1095;50.992;6.798;2023-03-21T07:59:34;23.92;;;11.48;;
2177;SDS011;1095;50.992;6.798;2023-03-21T08:02:00;24.00;;;12.45;;
2177;SDS011;1095;50.992;6.798;2023-03-21T08:04:27;27.75;;;12.73;;
2177;SDS011;1095;50.992;6.798;2023-03-21T08:06:54;29.52;;;12.75;;
2177;SDS011;1095;50.992;6.798;2023-03-21T08:09:21;22.42;;;11.18;;
2177;SDS011;1095;50.992;6.798;2023-03-21T08:11:48;23.58;;;11.88;;
2177;SDS011;1095;50.992;6.798;2023-03-21T08:14:16;24.63;;;11.90;;
2177;SDS011;1095;50.992;6.798;2023-03-21T08:16:42;22.38;;;11.00;;
2177;SDS011;1095;50.992;6.798;2023-03-21T08:19:09;23.17;;;12.68;;
2177;SDS011;1095;50.992;6.798;2023-03-21T08:21:35;19.25;;;11.40;;
2177;SDS011;1095;50.992;6.798;2023-03-21T08:24:03;20.77;;;11.10;;
2177;SDS011;1095;50.992;6.798;2023-03-21T08:26:31;20.88;;;11.63;;
2177;SDS011;1095;50.992;6.798;2023-03-21T08:28:58;22.90;;;12.70;;
2177;SDS011;1095;50.992;6.798;2023-03-21T08:31:26;24.05;;;12.63;;
2177;SDS011;1095;50.992;6.798;2023-03-21T08:33:53;28.90;;;12.95;;
2177;SDS011;1095;50.992;6.798;2023-03-21T08:36:20;23.08;;;12.20;;
2177;SDS011;1095;50.992;6.798;2023-03-21T08:38:47;32.47;;;12.27;;
2177;SDS011;1095;50.992;6.798;2023-03-21T08:41:18;24.67;;;11.73;;
2177;SDS011;1095;50.992;6.798;2023-03-21T08:43:46;24.27;;;11.90;;
2177;SDS011;1095;50.992;6.798;2023-03-21T08:46:12;19.95;;;10.95;;
2177;SDS011;1095;50.992;6.798;2023-03-21T08:48:41;20.67;;;10.82;;
2177;SDS011;1095;50.992;6.798;2023-03-21T08:51:08;23.85;;;10.90;;
2177;SDS011;1095;50.992;6.798;2023-03-21T08:53:34;25.15;;;11.52;;
2177;SDS011;1095;50.992;6.798;2023-03-21T08:56:02;23.77;;;12.68;;
2177;SDS011;1095;50.992;6.798;2023-03-21T08:58:28;26.92;;;13.05;;
2177;SDS011;1095;50.992;6.798;2023-03-21T09:00:55;20.83;;;11.70;;
2177;SDS011;1095;50.992;6.798;2023-03-21T09:03:21;20.25;;;11.45;;
2177;SDS011;1095;50.992;6.798;2023-03-21T09:05:50;20.38;;;11.75;;
2177;SDS011;1095;50.992;6.798;2023-03-21T09:08:18;23.42;;;12.05;;
2177;SDS011;1095;50.992;6.798;2023-03-21T09:10:47;20.05;;;10.68;;
2177;SDS011;1095;50.992;6.798;2023-03-21T09:13:14;22.92;;;11.63;;
2177;SDS011;1095;50.992;6.798;2023-03-21T09:15:41;24.25;;;11.30;;
2177;SDS011;1095;50.992;6.798;2023-03-21T09:18:07;18.15;;;10.70;;
2177;SDS011;1095;50.992;6.798;2023-03-21T09:20:39;23.40;;;11.98;;
2177;SDS011;1095;50.992;6.798;2023-03-21T09:23:08;20.48;;;12.68;;
2177;SDS011;1095;50.992;6.798;2023-03-21T09:25:37;21.23;;;11.50;;
2177;SDS011;1095;50.992;6.798;2023-03-21T09:28:04;20.13;;;10.70;;
2177;SDS011;1095;50.992;6.798;2023-03-21T09:30:32;24.33;;;10.75;;
2177;SDS011;1095;50.992;6.798;2023-03-21T09:33:00;43.47;;;15.13;;
2177;SDS011;1095;50.992;6.798;2023-03-21T09:35:30;18.85;;;12.13;;
2177;SDS011;1095;50.992;6.798;2023-03-21T09:38:00;17.35;;;10.15;;
2177;SDS011;1095;50.992;6.798;2023-03-21T09:40:38;23.80;;;10.00;;
2177;SDS011;1095;50.992;6.798;2023-03-21T09:43:20;19.27;;;10.43;;
2177;SDS011;1095;50.992;6.798;2023-03-21T09:45:54;18.25;;;9.93;;
2177;SDS011;1095;50.992;6.798;2023-03-21T09:48:30;22.88;;;14.07;;
2177;SDS011;1095;50.992;6.798;2023-03-21T09:51:01;21.15;;;10.80;;
2177;SDS011;1095;50.992;6.798;2023-03-21T09:53:31;18.55;;;10.30;;
2177;SDS011;1095;50.992;6.798;2023-03-21T09:56:07;19.73;;;10.27;;
2177;SDS011;1095;50.992;6.798;2023-03-21T09:58:37;21.33;;;10.65;;
2177;SDS011;1095;50.992;6.798;2023-03-21T10:01:08;16.50;;;10.77;;
2177;SDS011;1095;50.992;6.798;2023-03-21T10:03:46;23.13;;;11.82;;
2177;SDS011;1095;50.992;6.798;2023-03-21T10:06:14;20.65;;;11.40;;
2177;SDS011;1095;50.992;6.798;2023-03-21T10:08:43;20.02;;;11.23;;
2177;SDS011;1095;50.992;6.798;2023-03-21T10:11:14;18.88;;;11.70;;
2177;SDS011;1095;50.992;6.798;2023-03-21T10:13:45;22.83;;;13.38;;
2177;SDS011;1095;50.992;6.798;2023-03-21T10:16:16;19.23;;;10.80;;
2177;SDS011;1095;50.992;6.798;2023-03-21T10:18:48;16.63;;;10.73;;
2177;SDS011;1095;50.992;6.798;2023-03-21T10:21:17;16.67;;;10.02;;
2177;SDS011;1095;50.992;6.798;2023-03-21T10:23:46;21.08;;;10.60;;
2177;SDS011;1095;50.992;6.798;2023-03-21T10:26:17;14.77;;;9.50;;
2177;SDS011;1095;50.992;6.798;2023-03-21T10:28:46;16.73;;;9.30;;
2177;SDS011;1095;50.992;6.798;2023-03-21T10:31:14;20.20;;;10.32;;
2177;SDS011;1095;50.992;6.798;2023-03-21T10:33:45;15.70;;;9.63;;
2177;SDS011;1095;50.992;6.798;2023-03-21T10:36:14;17.33;;;9.57;;
2177;SDS011;1095;50.992;6.798;2023-03-21T10:38:43;14.95;;;9.73;;
2177;SDS011;1095;50.992;6.798;2023-03-21T10:41:18;20.73;;;10.13;;
2177;SDS011;1095;50.992;6.798;2023-03-21T10:43:45;16.05;;;10.02;;
2177;SDS011;1095;50.992;6.798;2023-03-21T10:46:29;16.48;;;10.32;;
2177;SDS011;1095;50.992;6.798;2023-03-21T10:48:56;16.85;;;10.10;;
2177;SDS011;1095;50.992;6.798;2023-03-21T10:51:24;16.88;;;9.40;;
2177;SDS011;1095;50.992;6.798;2023-03-21T10:53:54;17.45;;;8.88;;
2177;SDS011;1095;50.992;6.798;2023-03-21T10:56:24;15.32;;;9.35;;
2177;SDS011;1095;50.992;6.798;2023-03-21T10:58:53;16.85;;;9.50;;
2177;SDS011;1095;50.992;6.798;2023-03-21T11:01:25;18.35;;;9.55;;
2177;SDS011;1095;50.992;6.798;2023-03-21T11:03:55;18.60;;;8.95;;
2177;SDS011;1095;50.992;6.798;2023-03-21T11:06:28;19.10;;;8.75;;
2177;SDS011;1095;50.992;6.798;2023-03-21T11:08:59;14.15;;;8.57;;
2177;SDS011;1095;50.992;6.798;2023-03-21T11:11:34;19.88;;;9.45;;
2177;SDS011;1095;50.992;6.798;2023-03-21T11:14:04;15.80;;;8.70;;
2177;SDS011;1095;50.992;6.798;2023-03-21T11:16:35;19.02;;;9.50;;
2177;SDS011;1095;50.992;6.798;2023-03-21T11:19:11;16.63;;;8.90;;
2177;SDS011;1095;50.992;6.798;2023-03-21T11:21:41;15.13;;;8.73;;
2177;SDS011;1095;50.992;6.798;2023-03-21T11:24:10;17.65;;;9.80;;
2177;SDS011;1095;50.992;6.798;2023-03-21T11:26:42;15.85;;;9.90;;
2177;SDS011;1095;50.992;6.798;2023-03-21T11:29:15;19.95;;;9.70;;
2177;SDS011;1095;50.992;6.798;2023-03-21T11:31:51;16.15;;;9.63;;
2177;SDS011;1095;50.992;6.798;2023-03-21T11:34:25;14.52;;;9.32;;
2177;SDS011;1095;50.992;6.798;2023-03-21T11:36:57;18.70;;;9.98;;
2177;SDS011;1095;50.992;6.798;2023-03-21T11:39:33;17.75;;;9.70;;
2177;SDS011;1095;50.992;6.798;2023-03-21T11:42:05;15.95;;;9.80;;
2177;SDS011;1095;50.992;6.798;2023-03-21T11:44:51;16.92;;;10.35;;
2177;SDS011;1095;50.992;6.798;2023-03-21T11:47:26;16.77;;;10.27;;
2177;SDS011;1095;50.992;6.798;2023-03-21T11:49:53;26.00;;;12.05;;
2177;SDS011;1095;50.992;6.798;2023-03-21T11:52:22;17.63;;;10.88;;
2177;SDS011;1095;50.992;6.798;2023-03-21T11:57:52;20.15;;;10.40;;
2177;SDS011;1095;50.992;6.798;2023-03-21T12:06:00;16.02;;;9.55;;
2177;SDS011;1095;50.992;6.798;2023-03-21T12:19:01;13.68;;;10.68;;
2177;SDS011;1095;50.992;6.798;2023-03-21T12:21:42;16.95;;;10.70;;
2177;SDS011;1095;50.992;6.798;2023-03-21T12:24:19;15.60;;;11.18;;
2177;SDS011;1095;50.992;6.798;2023-03-21T12:26:51;20.25;;;11.07;;
2177;SDS011;1095;50.992;6.798;2023-03-21T12:29:28;20.38;;;10.80;;
2177;SDS011;1095;50.992;6.798;2023-03-21T12:32:16;17.50;;;10.18;;
2177;SDS011;1095;50.992;6.798;2023-03-21T12:35:04;18.60;;;11.05;;
2177;SDS011;1095;50.992;6.798;2023-03-21T12:37:44;23.75;;;11.13;;
2177;SDS011;1095;50.992;6.798;2023-03-21T12:40:21;20.80;;;10.23;;
2177;SDS011;1095;50.992;6.798;2023-03-21T12:45:38;14.95;;;9.38;;
2177;SDS011;1095;50.992;6.798;2023-03-21T12:48:13;16.85;;;9.65;;
2177;SDS011;1095;50.992;6.798;2023-03-21T12:50:46;15.23;;;9.65;;
2177;SDS011;1095;50.992;6.798;2023-03-21T12:53:24;16.42;;;8.85;;
2177;SDS011;1095;50.992;6.798;2023-03-21T12:56:00;14.30;;;9.10;;
2177;SDS011;1095;50.992;6.798;2023-03-21T12:58:30;16.15;;;8.75;;
2177;SDS011;1095;50.992;6.798;2023-03-21T13:01:04;17.50;;;9.13;;
2177;SDS011;1095;50.992;6.798;2023-03-21T13:03:33;16.35;;;9.23;;
2177;SDS011;1095;50.992;6.798;2023-03-21T13:06:06;16.45;;;9.00;;
2177;SDS011;1095;50.992;6.798;2023-03-21T13:08:36;18.58;;;9.93;;
2177;SDS011;1095;50.992;6.798;2023-03-21T13:11:06;16.33;;;9.00;;
2177;SDS011;1095;50.992;6.798;2023-03-21T13:13:38;13.43;;;9.25;;
2177;SDS011;1095;50.992;6.798;2023-03-21T13:16:10;13.85;;;8.68;;
2177;SDS011;1095;50.992;6.798;2023-03-21T13:18:45;12.60;;;9.18;;
2177;SDS011;1095;50.992;6.798;2023-03-21T13:21:20;13.75;;;8.55;;
2177;SDS011;1095;50.992;6.798;2023-03-21T13:23:58;13.90;;;8.13;;
2177;SDS011;1095;50.992;6.798;2023-03-21T13:26:35;17.15;;;9.48;;
2177;SDS011;1095;50.992;6.798;2023-03-21T13:29:13;14.98;;;8.93;;
2177;SDS011;1095;50.992;6.798;2023-03-21T13:31:48;16.60;;;8.88;;
2177;SDS011;1095;50.992;6.798;2023-03-21T13:34:18;13.93;;;7.80;;
2177;SDS011;1095;50.992;6.798;2023-03-21T13:36:49;14.05;;;7.85;;
2177;SDS011;1095;50.992;6.798;2023-03-21T13:39:17;11.73;;;8.10;;
2177;SDS011;1095;50.992;6.798;2023-03-21T13:41:46;12.15;;;7.85;;
2177;SDS011;1095;50.992;6.798;2023-03-21T13:44:26;15.85;;;7.70;;
2177;SDS011;1095;50.992;6.798;2023-03-21T13:46:58;15.63;;;7.95;;
2177;SDS011;1095;50.992;6.798;2023-03-21T13:49:27;11.63;;;7.60;;
2177;SDS011;1095;50.992;6.798;2023-03-21T13:51:59;11.98;;;8.05;;
2177;SDS011;1095;50.992;6.798;2023-03-21T13:54:28;11.63;;;7.85;;
2177;SDS011;1095;50.992;6.798;2023-03-21T13:57:19;10.43;;;7.53;;
2177;SDS011;1095;50.992;6.798;2023-03-21T13:59:48;17.00;;;8.10;;
2177;SDS011;1095;50.992;6.798;2023-03-21T14:02:22;12.52;;;8.20;;
2177;SDS011;1095;50.992;6.798;2023-03-21T14:04:55;11.30;;;7.82;;
2177;SDS011;1095;50.992;6.798;2023-03-21T14:07:26;14.65;;;8.63;;
2177;SDS011;1095;50.992;6.798;2023-03-21T14:09:56;12.13;;;8.13;;
2177;SDS011;1095;50.992;6.798;2023-03-21T14:12:27;13.18;;;8.48;;
2177;SDS011;1095;50.992;6.798;2023-03-21T14:14:57;14.32;;;7.78;;
2177;SDS011;1095;50.992;6.798;2023-03-21T14:17:26;11.68;;;8.20;;
2177;SDS011;1095;50.992;6.798;2023-03-21T14:19:55;13.48;;;7.82;;
2177;SDS011;1095;50.992;6.798;2023-03-21T14:22:26;13.05;;;8.38;;
2177;SDS011;1095;50.992;6.798;2023-03-21T14:24:55;12.57;;;8.43;;
2177;SDS011;1095;50.992;6.798;2023-03-21T14:27:23;11.90;;;8.15;;
2177;SDS011;1095;50.992;6.798;2023-03-21T14:29:52;15.35;;;8.23;;
2177;SDS011;1095;50.992;6.798;2023-03-21T14:32:21;13.02;;;8.15;;
2177;SDS011;1095;50.992;6.798;2023-03-21T14:34:50;11.70;;;7.93;;
2177;SDS011;1095;50.992;6.798;2023-03-21T14:37:26;16.08;;;8.70;;
2177;SDS011;1095;50.992;6.798;2023-03-21T14:39:55;15.60;;;8.23;;
2177;SDS011;1095;50.992;6.798;2023-03-21T14:42:23;14.23;;;8.02;;
2177;SDS011;1095;50.992;6.798;2023-03-21T14:44:51;12.45;;;7.88;;
2177;SDS011;1095;50.992;6.798;2023-03-21T14:47:28;13.57;;;7.90;;
2177;SDS011;1095;50.992;6.798;2023-03-21T14:49:56;14.63;;;7.65;;
2177;SDS011;1095;50.992;6.798;2023-03-21T14:52:26;13.15;;;7.63;;
2177;SDS011;1095;50.992;6.798;2023-03-21T14:54:57;14.32;;;8.27;;
2177;SDS011;1095;50.992;6.798;2023-03-21T14:57:26;11.23;;;8.23;;
2177;SDS011;1095;50.992;6.798;2023-03-21T14:59:56;12.07;;;7.72;;
2177;SDS011;1095;50.992;6.798;2023-03-21T15:02:32;15.68;;;8.10;;
2177;SDS011;1095;50.992;6.798;2023-03-21T15:05:05;12.35;;;8.18;;
2177;SDS011;1095;50.992;6.798;2023-03-21T15:07:36;14.90;;;7.70;;
2177;SDS011;1095;50.992;6.798;2023-03-21T15:10:03;12.52;;;7.80;;
2177;SDS011;1095;50.992;6.798;2023-03-21T15:12:33;13.50;;;7.78;;
2177;SDS011;1095;50.992;6.798;2023-03-21T15:14:59;12.40;;;8.13;;
2177;SDS011;1095;50.992;6.798;2023-03-21T15:17:28;11.90;;;7.30;;
2177;SDS011;1095;50.992;6.798;2023-03-21T15:19:55;14.02;;;7.50;;
2177;SDS011;1095;50.992;6.798;2023-03-21T15:22:25;10.52;;;7.28;;
2177;SDS011;1095;50.992;6.798;2023-03-21T15:24:59;12.88;;;7.45;;
2177;SDS011;1095;50.992;6.798;2023-03-21T15:27:29;10.05;;;7.05;;
2177;SDS011;1095;50.992;6.798;2023-03-21T15:29:59;13.55;;;7.75;;
2177;SDS011;1095;50.992;6.798;2023-03-21T15:32:26;13.55;;;7.18;;
2177;SDS011;1095;50.992;6.798;2023-03-21T15:34:54;12.23;;;7.30;;
2177;SDS011;1095;50.992;6.798;2023-03-21T15:37:32;11.20;;;7.18;;
2177;SDS011;1095;50.992;6.798;2023-03-21T15:40:07;10.23;;;7.55;;
2177;SDS011;1095;50.992;6.798;2023-03-21T15:42:36;12.02;;;8.02;;
2177;SDS011;1095;50.992;6.798;2023-03-21T15:45:07;10.55;;;7.45;;